Hiddenite, North Carolina
Current Conditions -  °F | °C
As of 7:55 PM on Wednesday 22 Oct 2014 (Local Time) from KSVH Reporting Station
Clear Clear  
Wind Chill: 52°   Ceiling: Unl
Heat Index: 52°   Visibility: 10mi
Dew Point: 38°   Wind: 10mph
Humidity: 60%   Direction: 340°NNW
Pressure: 30.08"   Gusts: NA
Location:  35.9°N, 81.09°W
Report Text: KSVH 222355Z AUTO 34009KT 10SM CLR 11/03 A3008 RMK AO2 T01100034 10188 20110
Loading
Personal Weather Stations






























Interactive Weather Map
Tropical Storm Tracking
New forecast layout! Learn more

10-Day Weather Forecast

Advertisements
Track Severe Weather on mobile